Canovelles, Spain
Current Conditions -  °F | °C
As of 2:00 PM on Wednesday 22 Oct 2014 (Local Time) from LELL Reporting Station
Clear Clear  
Wind Chill: 75°   Ceiling: Unl
Heat Index: 75°   Visibility: 6mi
Dew Point: 43°   Wind: 12mph
Humidity: 31%   Direction: 250°WSW
Pressure: 30.18"   Gusts: NA
Location:  41.62°N, 2.28°E
Report Text: LELL 221200Z 25010KT 210V290 CAVOK 24/06 Q1022
Loading
Personal Weather Stations






























Interactive Weather Map
Tropical Storm Tracking
New forecast layout! Learn more

10-Day Weather Forecast

Advertisements
Track Severe Weather on mobile